Time;durP1;ratioP1;P1;durP2;ratioP2;P2;SDS_P1;SDS_P2;PMS_P1;PMS_P2;Temp;Humidity;BMP_temperature;BMP_pressure;BME280_temperature;BME280_humidity;BME280_pressure;Samples;Min_cycle;Max_cycle;Signal;HPM_P1;HPM_P2
2021/05/02 00:01:43;;;;;;;9.43;4.68;;;;;;;18.36;72.60;98984.00;5114426;28;20503;-74
2021/05/02 00:04:09;;;;;;;9.98;4.90;;;;;;;18.21;72.68;98981.16;5096110;28;20039;-73
2021/05/02 00:06:35;;;;;;;9.48;4.70;;;;;;;18.24;72.82;98984.38;5114272;28;20088;-75
2021/05/02 00:09:00;;;;;;;10.68;4.78;;;;;;;18.16;72.98;98965.47;5114145;28;20076;-84
2021/05/02 00:11:26;;;;;;;11.02;4.50;;;;;;;18.16;72.97;98975.44;5114589;28;20038;-72
2021/05/02 00:13:51;;;;;;;9.98;4.63;;;;;;;18.20;72.53;98971.38;5114025;28;20038;-73
2021/05/02 00:16:17;;;;;;;8.23;4.45;;;;;;;18.11;72.66;98945.41;5078402;28;20058;-72
2021/05/02 00:18:43;;;;;;;12.18;4.63;;;;;;;17.91;72.94;98920.66;5096077;28;20055;-71
2021/05/02 00:21:10;;;;;;;9.27;4.45;;;;;;;18.12;73.33;98969.53;5095327;28;20476;-72
2021/05/02 00:23:38;;;;;;;8.52;4.93;;;;;;;18.19;72.89;98959.72;5113970;28;20050;-72
2021/05/02 00:26:05;;;;;;;9.63;4.72;;;;;;;18.10;72.82;98939.16;5113393;28;20027;-72
2021/05/02 00:28:31;;;;;;;8.82;4.72;;;;;;;18.27;72.62;98951.63;5113685;28;20065;-70
2021/05/02 00:30:57;;;;;;;13.52;4.93;;;;;;;18.19;72.89;98951.63;5113857;28;20084;-71
2021/05/02 00:33:23;;;;;;;9.00;4.70;;;;;;;18.26;72.92;98941.84;5095393;28;20033;-72
2021/05/02 00:35:50;;;;;;;7.82;4.68;;;;;;;18.25;72.81;98945.56;5078913;28;20039;-72
2021/05/02 00:38:16;;;;;;;10.07;5.03;;;;;;;18.25;72.67;98931.22;5113444;28;20032;-72
2021/05/02 00:40:43;;;;;;;10.13;5.50;;;;;;;18.24;72.71;98935.78;5078729;28;20035;-72
2021/05/02 00:43:12;;;;;;;10.93;5.43;;;;;;;17.90;72.53;98873.13;5095467;28;20077;-73
2021/05/02 00:45:57;;;;;;;9.77;5.38;;;;;;;18.19;72.74;98932.75;5095235;28;20425;-71
2021/05/02 00:48:36;;;;;;;11.25;5.30;;;;;;;18.13;73.18;98928.03;5112569;28;20054;-71
2021/05/02 00:51:06;;;;;;;10.63;5.25;;;;;;;18.04;74.10;98926.34;5095830;28;20444;-71
2021/05/02 00:53:52;;;;;;;9.80;5.07;;;;;;;18.09;73.58;98917.75;5113608;28;20036;-72
2021/05/02 00:56:26;;;;;;;9.98;5.10;;;;;;;18.24;73.24;98918.75;5096350;28;20468;-72
2021/05/02 00:59:06;;;;;;;10.20;4.95;;;;;;;18.02;74.09;98914.91;5113333;28;20024;-72
2021/05/02 01:01:50;;;;;;;9.70;4.88;;;;;;;17.92;74.61;98908.84;5117077;28;20066;-72
2021/05/02 01:04:24;;;;;;;10.05;4.90;;;;;;;17.60;74.66;98858.50;5123586;28;20036;-72
2021/05/02 01:06:51;;;;;;;10.05;5.43;;;;;;;17.72;74.86;98870.63;5118073;28;20111;-72
2021/05/02 01:09:17;;;;;;;14.15;5.22;;;;;;;17.80;75.11;98873.31;5114371;28;20036;-71
2021/05/02 01:11:47;;;;;;;9.55;5.05;;;;;;;17.81;74.90;98880.38;5095736;28;20032;-71
2021/05/02 01:14:17;;;;;;;14.63;5.65;;;;;;;17.86;75.06;98882.59;5113187;28;20044;-69
2021/05/02 01:16:44;;;;;;;10.98;5.20;;;;;;;17.68;75.24;98848.53;5113848;28;20052;-69
2021/05/02 01:19:12;;;;;;;9.55;5.43;;;;;;;17.79;75.38;98854.63;5113363;28;20157;-70
2021/05/02 01:21:40;;;;;;;10.32;5.43;;;;;;;17.86;75.46;98880.72;5113222;28;20024;-71
2021/05/02 01:24:08;;;;;;;13.05;5.82;;;;;;;17.59;76.27;98854.94;5094769;28;20032;-77
2021/05/02 01:26:38;;;;;;;9.18;5.32;;;;;;;17.71;76.16;98867.09;5113361;28;20028;-70
2021/05/02 01:29:04;;;;;;;10.63;5.38;;;;;;;17.88;75.37;98856.28;5113108;28;20493;-70
2021/05/02 01:31:30;;;;;;;13.13;5.25;;;;;;;17.88;75.51;98861.66;5112780;28;20051;-70
2021/05/02 01:33:56;;;;;;;13.80;6.05;;;;;;;17.80;75.56;98864.38;5078190;28;20353;-70
2021/05/02 01:36:22;;;;;;;10.48;5.63;;;;;;;17.70;76.30;98862.72;5112621;28;20480;-69
2021/05/02 01:38:49;;;;;;;9.10;5.72;;;;;;;17.73;76.32;98866.91;5095018;28;20038;-70
2021/05/02 01:41:15;;;;;;;11.88;6.25;;;;;;;17.65;76.67;98865.03;5112868;28;20042;-70
2021/05/02 01:43:41;;;;;;;12.25;6.47;;;;;;;17.44;77.06;98845.88;5113032;28;20044;-70
2021/05/02 01:46:06;;;;;;;11.80;6.35;;;;;;;17.34;77.03;98834.41;5113109;28;20039;-79
2021/05/02 01:48:33;;;;;;;9.43;6.15;;;;;;;17.25;77.56;98813.88;5112827;28;20107;-70
2021/05/02 01:51:08;;;;;;;10.95;5.95;;;;;;;17.55;77.39;98856.28;5112780;28;20036;-70
2021/05/02 01:53:36;;;;;;;12.48;6.13;;;;;;;17.12;77.47;98798.22;5113112;28;20035;-70
2021/05/02 01:56:02;;;;;;;12.88;6.85;;;;;;;17.50;77.82;98860.53;5094731;28;20088;-70
2021/05/02 01:58:30;;;;;;;13.13;6.57;;;;;;;17.50;77.45;98860.53;5113918;28;20035;-71
2021/05/02 02:01:01;;;;;;;14.35;5.95;;;;;;;17.57;77.18;98856.97;5098495;28;20412;-72
2021/05/02 02:03:26;;;;;;;14.55;6.07;;;;;;;17.54;77.50;98845.69;5116466;28;20036;-72
2021/05/02 02:05:53;;;;;;;11.70;6.05;;;;;;;17.56;77.50;98838.25;5098685;28;20035;-73
2021/05/02 02:08:19;;;;;;;14.98;6.22;;;;;;;17.57;77.35;98838.13;5081411;28;20035;-73
2021/05/02 02:10:47;;;;;;;14.70;6.18;;;;;;;17.51;77.38;98836.09;5116409;28;20472;-73
2021/05/02 02:13:15;;;;;;;15.82;6.28;;;;;;;17.54;77.13;98845.69;5116519;28;20035;-72
2021/05/02 02:15:41;;;;;;;11.32;6.30;;;;;;;17.49;76.56;98824.66;5115963;28;20038;-72
2021/05/02 02:18:09;;;;;;;13.18;6.90;;;;;;;17.58;76.83;98841.66;5098324;28;20040;-72
2021/05/02 02:20:39;;;;;;;16.00;6.60;;;;;;;17.62;76.42;98860.00;5098275;28;20028;-70
2021/05/02 02:23:11;;;;;;;12.50;6.35;;;;;;;17.59;76.32;98849.56;5116030;28;20486;-69
2021/05/02 02:25:41;;;;;;;15.15;6.82;;;;;;;17.66;76.49;98855.97;5098026;28;20024;-71
2021/05/02 02:28:11;;;;;;;14.48;6.95;;;;;;;17.72;76.32;98849.06;5098112;28;20032;-72
2021/05/02 02:30:37;;;;;;;17.38;7.10;;;;;;;17.76;75.73;98852.25;5097907;28;20031;-73
2021/05/02 02:33:06;;;;;;;12.65;6.28;;;;;;;17.80;75.75;98845.50;5116022;28;20173;-72
2021/05/02 02:35:38;;;;;;;14.80;7.05;;;;;;;17.57;75.22;98792.28;5115592;28;20034;-73
2021/05/02 02:38:06;;;;;;;15.02;6.57;;;;;;;17.80;75.61;98834.72;5116167;28;20396;-71
2021/05/02 02:40:36;;;;;;;14.10;6.78;;;;;;;17.69;76.11;98825.97;5115602;28;20053;-71
2021/05/02 02:43:03;;;;;;;15.32;6.85;;;;;;;17.66;76.39;98829.00;5115957;28;20050;-71
2021/05/02 02:45:34;;;;;;;17.95;6.57;;;;;;;17.78;76.18;98852.94;5097257;28;20043;-71
2021/05/02 02:48:03;;;;;;;12.38;6.70;;;;;;;17.87;75.57;98854.59;5097620;28;20032;-70
2021/05/02 02:50:30;;;;;;;12.57;6.65;;;;;;;17.72;75.33;98838.28;5115072;28;20063;-70
2021/05/02 02:53:02;;;;;;;15.93;6.90;;;;;;;17.70;75.51;98832.22;5115489;28;20032;-69
2021/05/02 02:55:30;;;;;;;15.50;7.03;;;;;;;17.77;75.66;98851.25;5115412;28;20042;-74
2021/05/02 02:57:59;;;;;;;15.10;6.82;;;;;;;17.65;76.02;98832.69;5097356;28;20039;-74
2021/05/02 03:00:43;;;;;;;16.15;6.90;;;;;;;17.76;75.95;98852.25;5115346;28;20034;-73
2021/05/02 03:03:13;;;;;;;15.27;6.30;;;;;;;17.68;75.97;98851.22;5115858;28;20055;-72
2021/05/02 03:05:40;;;;;;;14.38;6.85;;;;;;;17.57;76.03;98835.41;5115314;28;20031;-73
2021/05/02 03:08:08;;;;;;;18.17;7.07;;;;;;;17.57;76.60;98840.81;5115927;28;20027;-72
2021/05/02 03:10:34;;;;;;;17.42;7.28;;;;;;;17.37;76.34;98796.34;5096282;28;20027;-71
2021/05/02 03:13:00;;;;;;;15.25;7.13;;;;;;;17.50;76.05;98820.09;5115518;28;20036;-71
2021/05/02 03:15:28;;;;;;;16.58;6.90;;;;;;;17.58;76.33;98842.50;5096603;28;20160;-74
2021/05/02 03:18:34;;;;;;;16.30;7.03;;;;;;;17.57;76.60;98840.81;5115321;28;20442;-73
2021/05/02 03:21:09;;;;;;;14.27;7.00;;;;;;;17.54;76.67;98832.19;5115007;28;20435;-73
2021/05/02 03:23:42;;;;;;;19.08;7.25;;;;;;;17.50;77.01;98836.25;5096306;28;20036;-74
2021/05/02 03:26:09;;;;;;;14.52;7.10;;;;;;;17.54;76.96;98841.13;5096820;28;20027;-74
2021/05/02 03:28:48;;;;;;;14.73;6.72;;;;;;;17.17;77.42;98791.31;5096393;28;20058;-74
2021/05/02 03:31:16;;;;;;;17.85;7.03;;;;;;;17.40;78.06;98834.59;5114540;28;20461;-73
2021/05/02 03:33:46;;;;;;;14.93;7.38;;;;;;;17.41;77.99;98843.50;5114861;28;20093;-71
2021/05/02 03:36:17;;;;;;;15.60;6.60;;;;;;;17.24;77.98;98801.41;5096608;28;20042;-71
2021/05/02 03:38:47;;;;;;;16.05;7.07;;;;;;;17.49;77.87;98859.69;5115086;28;20411;-71
2021/05/02 03:41:14;;;;;;;18.42;7.18;;;;;;;17.42;77.63;98847.88;5114322;28;20054;-81
2021/05/02 03:43:39;;;;;;;13.77;6.82;;;;;;;17.38;77.80;98835.78;5114952;28;20031;-73
2021/05/02 03:46:06;;;;;;;18.40;7.32;;;;;;;17.37;77.81;98845.72;5114864;28;20060;-72
2021/05/02 03:48:32;;;;;;;14.05;7.00;;;;;;;17.39;77.77;98870.66;5096302;28;20126;-73
2021/05/02 03:50:59;;;;;;;17.02;7.25;;;;;;;17.50;77.48;98868.63;5096289;28;20107;-74
2021/05/02 03:53:25;;;;;;;17.58;7.32;;;;;;;17.39;77.73;98840.16;5114156;28;20031;-74
2021/05/02 03:55:50;;;;;;;12.70;7.22;;;;;;;17.25;78.84;98806.63;5114571;28;20062;-74
2021/05/02 03:58:17;;;;;;;17.85;7.40;;;;;;;17.59;79.13;98857.66;5114210;28;20036;-75
2021/05/02 04:00:44;;;;;;;15.77;7.70;;;;;;;17.66;78.58;98842.47;5114522;28;20062;-74
2021/05/02 04:03:14;;;;;;;17.42;8.23;;;;;;;17.53;78.86;98834.06;5114097;28;20032;-74
2021/05/02 04:05:41;;;;;;;19.33;8.30;;;;;;;17.47;79.51;98840.16;5113940;28;20392;-74
2021/05/02 04:08:07;;;;;;;19.83;7.82;;;;;;;17.49;79.35;98840.81;5079510;28;20028;-74
2021/05/02 04:10:33;;;;;;;20.27;7.95;;;;;;;17.16;79.84;98792.31;5113879;28;20384;-74
2021/05/02 04:12:59;;;;;;;19.58;8.45;;;;;;;17.48;79.97;98839.13;5114297;28;20035;-74
2021/05/02 04:15:24;;;;;;;15.55;7.95;;;;;;;17.23;79.37;98802.44;5113495;28;20540;-72
2021/05/02 04:17:50;;;;;;;16.88;8.35;;;;;;;17.54;79.81;98841.13;5114271;28;20079;-71
2021/05/02 04:20:16;;;;;;;15.38;7.55;;;;;;;17.42;79.12;98823.63;5095573;28;20028;-79
2021/05/02 04:22:42;;;;;;;20.50;8.85;;;;;;;17.41;79.69;98830.88;5113882;28;20046;-71
2021/05/02 04:25:08;;;;;;;16.98;8.10;;;;;;;17.45;79.46;98832.22;5114023;28;20114;-72
2021/05/02 04:27:33;;;;;;;14.02;7.78;;;;;;;17.56;79.26;98841.78;5115575;28;20553;-72
2021/05/02 04:29:59;;;;;;;19.83;8.18;;;;;;;17.69;79.08;98838.59;5124204;28;20035;-72
2021/05/02 04:32:25;;;;;;;21.55;8.55;;;;;;;17.94;78.14;98855.56;5100213;28;20035;-72
2021/05/02 04:34:54;;;;;;;22.17;8.13;;;;;;;18.46;76.44;98857.75;5095901;28;20028;-72
2021/05/02 04:37:19;;;;;;;20.50;7.47;;;;;;;18.51;75.15;98858.88;5095934;28;20081;-73
2021/05/02 04:39:45;;;;;;;16.42;7.38;;;;;;;18.27;75.61;98865.25;5095864;28;20427;-73
2021/05/02 04:42:11;;;;;;;21.08;7.63;;;;;;;18.19;75.70;98835.59;5095972;28;20127;-74
2021/05/02 04:44:37;;;;;;;21.35;8.05;;;;;;;18.13;75.99;98846.22;5095151;28;20400;-74
2021/05/02 04:47:03;;;;;;;18.73;7.57;;;;;;;18.18;76.00;98860.91;5113416;28;20042;-73
2021/05/02 04:49:29;;;;;;;16.65;6.95;;;;;;;17.92;76.03;98822.53;5095084;28;20114;-73
2021/05/02 04:51:55;;;;;;;18.90;7.80;;;;;;;18.23;75.51;98868.47;5113331;28;20128;-73
2021/05/02 04:54:20;;;;;;;19.02;7.70;;;;;;;18.19;75.79;98873.38;5095055;28;20380;-68
2021/05/02 04:56:46;;;;;;;20.60;7.95;;;;;;;18.11;75.83;98873.41;5113474;28;20110;-68
2021/05/02 04:59:12;;;;;;;19.77;7.75;;;;;;;18.23;75.99;98871.16;5095654;28;20031;-69
2021/05/02 05:01:39;;;;;;;22.88;8.48;;;;;;;18.21;75.44;98849.75;5112882;28;20499;-70
2021/05/02 05:04:08;;;;;;;20.35;7.70;;;;;;;18.62;74.74;98862.19;5113478;28;20092;-71
2021/05/02 05:06:34;;;;;;;17.90;7.07;;;;;;;18.64;73.78;98834.03;5078467;28;20392;-70
2021/05/02 05:08:59;;;;;;;17.42;7.40;;;;;;;18.81;72.79;98851.81;5113405;28;20039;-70
2021/05/02 05:11:25;;;;;;;22.65;8.18;;;;;;;19.28;71.59;98875.13;5094702;28;20114;-75
2021/05/02 05:13:51;;;;;;;17.25;7.45;;;;;;;19.63;70.23;98853.91;5078085;28;20032;-75
2021/05/02 05:16:16;;;;;;;24.35;7.47;;;;;;;20.18;68.48;98875.16;5113196;28;20135;-73
2021/05/02 05:18:42;;;;;;;17.45;7.43;;;;;;;20.49;66.65;98857.88;5094992;28;20043;-73
2021/05/02 05:21:08;;;;;;;17.60;7.07;;;;;;;21.17;64.48;98856.53;5113101;28;20131;-74
2021/05/02 05:23:33;;;;;;;20.85;6.93;;;;;;;21.57;62.20;98852.34;5112666;28;20031;-72
2021/05/02 05:25:59;;;;;;;18.02;7.18;;;;;;;21.08;63.54;98844.97;5113265;28;20481;-70
2021/05/02 05:28:25;;;;;;;14.85;6.45;;;;;;;21.25;63.00;98863.72;5094537;28;20054;-71
2021/05/02 05:30:52;;;;;;;16.50;6.90;;;;;;;21.50;62.47;98856.84;5113100;28;20035;-71
2021/05/02 05:33:18;;;;;;;15.32;6.28;;;;;;;21.40;62.42;98864.50;5113774;28;20063;-71
2021/05/02 05:35:43;;;;;;;13.48;6.43;;;;;;;20.97;63.40;98845.50;5098529;28;20070;-69
2021/05/02 05:38:09;;;;;;;18.02;6.70;;;;;;;20.94;63.73;98864.00;5098743;28;20391;-70
2021/05/02 05:40:35;;;;;;;12.48;6.55;;;;;;;21.02;63.51;98870.13;5116612;28;20063;-73
2021/05/02 05:43:03;;;;;;;18.73;6.30;;;;;;;20.94;63.94;98881.13;5098906;28;20388;-73
2021/05/02 05:45:31;;;;;;;18.80;7.20;;;;;;;20.94;63.95;98889.25;5116230;28;20040;-74
2021/05/02 05:47:56;;;;;;;17.45;6.65;;;;;;;21.11;63.18;98876.28;5116831;28;20047;-75
2021/05/02 05:50:23;;;;;;;17.13;6.60;;;;;;;20.85;62.99;98828.91;5098513;28;20027;-83
2021/05/02 05:52:51;;;;;;;16.05;6.40;;;;;;;21.10;62.30;98845.63;5098385;28;20373;-74
2021/05/02 05:55:17;;;;;;;16.45;6.00;;;;;;;21.49;60.94;98860.59;5116710;28;20448;-74
2021/05/02 05:57:47;;;;;;;16.40;6.03;;;;;;;22.47;58.54;98865.03;5081303;28;20047;-72
2021/05/02 06:00:15;;;;;;;14.88;5.07;;;;;;;22.46;58.07;98867.94;5116545;28;20054;-73
2021/05/02 06:02:41;;;;;;;16.33;5.47;;;;;;;22.51;57.72;98849.19;5098134;28;20120;-72
2021/05/02 06:05:07;;;;;;;13.35;5.28;;;;;;;23.16;55.68;98869.47;5116612;28;20054;-72
2021/05/02 06:07:33;;;;;;;15.50;5.60;;;;;;;24.19;53.05;98864.44;5116257;28;20034;-73
2021/05/02 06:09:58;;;;;;;13.55;5.57;;;;;;;24.21;52.89;98857.72;5098082;28;20418;-72
2021/05/02 06:12:24;;;;;;;19.95;5.43;;;;;;;23.77;52.85;98855.72;5098133;28;20024;-80
2021/05/02 06:14:50;;;;;;;11.77;4.40;;;;;;;24.89;50.14;98875.53;5116505;28;20071;-73
2021/05/02 06:17:16;;;;;;;14.48;4.53;;;;;;;25.44;48.72;98864.94;5115983;28;20504;-71
2021/05/02 06:19:42;;;;;;;13.32;4.28;;;;;;;25.16;48.72;98859.88;5116169;28;20040;-73
2021/05/02 06:22:08;;;;;;;14.85;3.83;;;;;;;25.73;47.97;98866.19;5081238;28;20031;-73
2021/05/02 06:24:33;;;;;;;13.25;4.32;;;;;;;26.27;45.48;98867.34;5097648;28;20444;-73
2021/05/02 06:26:59;;;;;;;15.63;3.88;;;;;;;25.92;46.46;98876.09;5097910;28;20044;-69
2021/05/02 06:29:25;;;;;;;10.88;3.80;;;;;;;25.84;45.35;98874.47;5080420;28;20031;-82
2021/05/02 06:31:51;;;;;;;17.30;3.80;;;;;;;25.82;45.97;98873.88;5110194;28;20031;-73
2021/05/02 06:34:16;;;;;;;15.07;3.47;;;;;;;25.05;47.71;98880.50;5060702;28;20082;-76
2021/05/02 06:36:42;;;;;;;15.07;3.30;;;;;;;23.91;49.81;98867.41;5090695;28;20088;-73
2021/05/02 06:39:09;;;;;;;17.42;3.60;;;;;;;24.28;49.41;98893.13;5103888;28;20098;-73
2021/05/02 06:41:37;;;;;;;14.93;3.30;;;;;;;23.09;51.79;98879.50;5087780;28;20119;-72
2021/05/02 06:44:03;;;;;;;13.48;2.97;;;;;;;22.79;53.09;98862.66;5101383;28;20016;-73
2021/05/02 06:46:30;;;;;;;11.90;3.13;;;;;;;23.55;52.05;98900.50;5096106;28;20038;-79
2021/05/02 06:49:02;;;;;;;13.30;3.10;;;;;;;23.18;51.54;98883.72;5078667;28;20035;-78
2021/05/02 06:51:28;;;;;;;11.07;3.20;;;;;;;22.01;55.26;98905.50;5103203;28;20061;-78
2021/05/02 06:53:55;;;;;;;15.35;2.90;;;;;;;23.00;52.98;98908.75;5115901;28;20272;-74
2021/05/02 06:56:22;;;;;;;10.35;3.00;;;;;;;22.43;53.42;98903.69;5115510;28;20035;-79
2021/05/02 06:58:49;;;;;;;9.68;2.60;;;;;;;22.65;53.55;98910.69;5115428;28;20035;-77
2021/05/02 07:01:15;;;;;;;13.35;2.88;;;;;;;22.47;52.82;98902.22;5115285;28;20028;-73
2021/05/02 07:03:40;;;;;;;14.20;2.85;;;;;;;21.83;54.70;98886.16;5091405;28;20381;-86
2021/05/02 07:06:05;;;;;;;13.70;4.93;;;;;;;22.22;54.08;98912.75;5115200;28;20034;-73
2021/05/02 07:08:31;;;;;;;11.15;2.50;;;;;;;22.04;54.70;98913.22;5079978;28;20039;-82
2021/05/02 07:10:58;;;;;;;12.82;3.00;;;;;;;21.41;54.85;98896.84;5115192;28;20050;-78
2021/05/02 07:13:24;;;;;;;13.20;2.58;;;;;;;21.61;54.21;98901.59;5115534;28;20055;-76
2021/05/02 07:15:50;;;;;;;9.75;2.13;;;;;;;21.48;54.89;98907.75;5079295;28;20058;-80
2021/05/02 07:18:16;;;;;;;10.55;2.70;;;;;;;21.26;55.04;98915.06;5080197;28;20087;-76
2021/05/02 07:20:42;;;;;;;9.05;2.20;;;;;;;21.23;54.83;98911.84;5107278;28;20031;-77
2021/05/02 07:23:09;;;;;;;11.10;2.30;;;;;;;21.20;54.23;98909.53;5104507;28;20038;-78
2021/05/02 07:25:35;;;;;;;10.50;2.30;;;;;;;21.23;53.95;98919.97;5105328;28;20030;-77
2021/05/02 07:28:00;;;;;;;18.67;2.83;;;;;;;21.12;53.50;98903.19;5084328;28;20035;-76
2021/05/02 07:30:26;;;;;;;5.97;1.52;;;;;;;20.57;53.51;98909.25;5084779;28;20469;-76
2021/05/02 07:32:51;;;;;;;9.45;2.17;;;;;;;20.28;54.09;98883.81;5088273;28;20079;-76
2021/05/02 07:35:17;;;;;;;8.85;1.77;;;;;;;20.56;54.29;98921.94;5107411;28;20035;-73
2021/05/02 07:37:42;;;;;;;11.20;2.28;;;;;;;20.55;54.56;98922.94;5114618;28;20040;-73
2021/05/02 07:40:08;;;;;;;11.63;2.03;;;;;;;20.89;53.61;98924.22;5114749;28;20046;-77
2021/05/02 07:42:34;;;;;;;6.80;1.80;;;;;;;20.73;53.70;98908.16;5093294;28;20037;-82
2021/05/02 07:45:01;;;;;;;7.05;1.33;;;;;;;20.74;53.71;98915.25;5098588;28;20043;-77
2021/05/02 07:47:26;;;;;;;12.93;2.53;;;;;;;21.20;53.07;98934.78;5085167;28;20028;-82
2021/05/02 07:49:52;;;;;;;11.98;2.45;;;;;;;21.01;53.50;98919.97;5098178;28;20043;-83
2021/05/02 07:52:17;;;;;;;14.18;1.77;;;;;;;20.64;54.93;98974.31;5100591;28;20031;-79
2021/05/02 07:54:44;;;;;;;7.82;1.58;;;;;;;19.41;52.67;99018.69;5064943;28;20025;-80
2021/05/02 07:57:10;;;;;;;9.05;1.65;;;;;;;18.92;51.87;99046.97;5113033;28;20023;-78
2021/05/02 07:59:38;;;;;;;4.40;0.90;;;;;;;18.00;53.41;99068.03;5088880;28;20473;-77
2021/05/02 08:02:05;;;;;;;5.65;1.08;;;;;;;17.48;53.43;99092.53;5103085;28;20492;-77
2021/05/02 08:04:30;;;;;;;3.72;0.65;;;;;;;17.02;54.77;99100.09;5101839;28;20038;-77
2021/05/02 08:06:56;;;;;;;2.03;0.82;;;;;;;16.69;56.30;99096.38;5086758;28;20027;-78
2021/05/02 08:09:21;;;;;;;4.32;0.70;;;;;;;16.35;56.93;99128.59;5067423;28;20038;-77
2021/05/02 08:11:47;;;;;;;3.47;0.50;;;;;;;15.88;58.27;99099.25;5084756;28;20130;-75
2021/05/02 08:14:12;;;;;;;1.45;0.60;;;;;;;16.06;58.41;99144.13;5092609;28;20047;-77
2021/05/02 08:16:40;;;;;;;2.15;0.43;;;;;;;15.97;58.98;99138.69;5095546;28;20476;-76
2021/05/02 08:19:05;;;;;;;0.45;0.35;;;;;;;15.57;60.03;99127.47;5113963;28;20081;-79
2021/05/02 08:21:31;;;;;;;2.30;0.50;;;;;;;15.51;60.21;99117.31;5114329;28;20035;-77
2021/05/02 08:23:56;;;;;;;0.82;0.40;;;;;;;15.29;60.98;99114.06;5095859;28;20046;-78
2021/05/02 08:26:22;;;;;;;0.38;0.20;;;;;;;15.31;60.81;99136.25;5096218;28;20045;-78
2021/05/02 08:28:47;;;;;;;0.57;0.47;;;;;;;14.95;61.22;99118.31;5113680;28;20468;-78
2021/05/02 08:31:14;;;;;;;0.75;0.40;;;;;;;15.09;61.81;99139.31;5114125;28;20061;-77
2021/05/02 08:33:40;;;;;;;0.82;0.40;;;;;;;14.88;62.39;99131.50;5113863;28;20082;-77
2021/05/02 08:36:06;;;;;;;1.52;0.80;;;;;;;15.13;61.93;99173.78;5079455;28;20067;-77
2021/05/02 08:38:32;;;;;;;0.80;0.50;;;;;;;14.98;62.37;99177.09;5113999;28;20039;-78
2021/05/02 08:41:03;;;;;;;2.17;0.90;;;;;;;15.13;61.62;99151.44;5113832;28;20107;-79
2021/05/02 08:43:29;;;;;;;1.27;0.52;;;;;;;14.87;62.02;99189.72;5113986;28;20114;-74
2021/05/02 08:45:54;;;;;;;0.95;0.60;;;;;;;15.00;61.75;99167.06;5095654;28;20039;-73
2021/05/02 08:48:21;;;;;;;0.88;0.63;;;;;;;14.97;61.70;99175.41;5114226;28;20142;-74
2021/05/02 08:50:49;;;;;;;1.25;0.68;;;;;;;15.38;60.79;99203.66;5113272;28;20042;-75
2021/05/02 08:53:15;;;;;;;1.95;0.50;;;;;;;15.72;59.71;99209.31;5113698;28;20040;-74
2021/05/02 08:55:42;;;;;;;1.55;0.75;;;;;;;15.51;59.07;99165.69;5095002;28;20039;-75
2021/05/02 08:58:13;;;;;;;1.20;0.60;;;;;;;15.69;59.20;99190.81;5113998;28;20357;-74
2021/05/02 09:00:38;;;;;;;0.80;0.50;;;;;;;16.07;58.47;99208.53;5113332;28;20535;-76
2021/05/02 09:03:06;;;;;;;3.58;0.60;;;;;;;15.67;58.64;99222.38;5113668;28;20059;-74
2021/05/02 09:05:44;;;;;;;1.35;0.88;;;;;;;15.66;58.95;99229.59;5113760;28;20044;-74
2021/05/02 09:08:29;;;;;;;0.90;0.55;;;;;;;15.66;58.65;99204.56;5114464;28;20038;-74
2021/05/02 09:10:54;;;;;;;2.28;0.85;;;;;;;15.78;58.67;99232.06;5117643;28;20067;-74
2021/05/02 09:13:19;;;;;;;1.65;0.68;;;;;;;15.13;60.72;99183.69;5099427;28;20066;-75
2021/05/02 09:15:56;;;;;;;1.08;0.63;;;;;;;15.50;59.08;99242.78;5099059;28;20039;-75
2021/05/02 09:18:35;;;;;;;1.13;0.77;;;;;;;15.25;58.11;99214.75;5117737;28;20052;-74
2021/05/02 09:21:00;;;;;;;2.35;0.60;;;;;;;14.97;58.45;99205.81;5117561;28;20126;-75
2021/05/02 09:23:40;;;;;;;1.05;0.52;;;;;;;15.33;57.99;99275.78;5117747;28;20540;-74
2021/05/02 09:26:08;;;;;;;2.65;0.70;;;;;;;15.16;57.64;99205.75;5117821;28;20084;-74
2021/05/02 09:28:45;;;;;;;1.77;0.38;;;;;;;15.25;58.03;99275.66;5117558;28;20028;-74
2021/05/02 09:31:13;;;;;;;0.80;0.40;;;;;;;15.37;57.56;99291.50;5099535;28;20031;-75
2021/05/02 09:33:38;;;;;;;0.93;0.50;;;;;;;15.84;55.81;99253.84;5117493;28;20073;-74
2021/05/02 09:36:12;;;;;;;3.30;0.55;;;;;;;16.18;55.03;99278.25;5098725;28;20552;-75
2021/05/02 09:38:39;;;;;;;1.30;0.70;;;;;;;16.28;54.73;99273.66;5117037;28;20488;-75
2021/05/02 09:41:06;;;;;;;0.68;0.47;;;;;;;15.90;55.48;99269.34;5117040;28;20028;-74
2021/05/02 09:43:42;;;;;;;1.30;0.50;;;;;;;16.10;54.91;99286.22;5117536;28;20095;-74
2021/05/02 09:49:11;;;;;;;0.50;0.50;;;;;;;15.76;55.75;99306.66;5117201;28;20103;-75
2021/05/02 09:51:52;;;;;;;2.97;0.60;;;;;;;15.98;56.04;99303.56;5098714;28;20039;-75
2021/05/02 09:54:22;;;;;;;0.93;0.60;;;;;;;16.08;56.88;99325.03;5116692;28;20043;-75
2021/05/02 09:56:53;;;;;;;1.98;0.88;;;;;;;16.18;56.89;99325.84;5116931;28;20361;-74
2021/05/02 09:59:21;;;;;;;2.50;0.80;;;;;;;16.08;54.86;99306.22;5117284;28;20042;-75
2021/05/02 10:02:12;;;;;;;1.08;0.60;;;;;;;15.65;56.44;99339.97;5098499;28;20039;-74
2021/05/02 10:04:47;;;;;;;1.23;0.55;;;;;;;15.78;55.78;99339.63;5117139;28;20059;-74
2021/05/02 10:07:15;;;;;;;3.72;0.73;;;;;;;15.56;55.89;99340.81;5098516;28;20483;-75
2021/05/02 10:09:42;;;;;;;1.83;0.80;;;;;;;15.48;56.28;99354.97;5116900;28;20068;-73
2021/05/02 10:12:09;;;;;;;2.03;0.85;;;;;;;15.47;55.53;99380.16;5081781;28;20027;-74
2021/05/02 10:14:39;;;;;;;1.65;0.75;;;;;;;15.18;57.25;99354.16;5116619;28;20040;-74
2021/05/02 10:17:05;;;;;;;2.15;0.80;;;;;;;14.99;57.58;99299.63;5097762;28;20043;-75
2021/05/02 10:19:31;;;;;;;4.07;1.10;;;;;;;15.06;57.98;99300.75;5100674;28;20040;-77
2021/05/02 10:21:57;;;;;;;1.50;0.98;;;;;;;15.43;57.27;99352.69;5086862;28;20055;-76
2021/05/02 10:24:23;;;;;;;0.95;0.70;;;;;;;15.53;56.77;99347.28;5086317;28;20066;-75
2021/05/02 10:26:51;;;;;;;1.67;0.80;;;;;;;15.39;56.66;99350.47;5110585;28;20377;-81
2021/05/02 10:29:24;;;;;;;1.95;1.10;;;;;;;15.49;56.22;99367.41;5107025;28;20028;-81
2021/05/02 10:31:50;;;;;;;;;;;;;;;15.37;55.87;99364.03;5106714;28;20490;-81
2021/05/02 10:34:29;;;;;;;1.10;0.80;;;;;;;15.42;55.80;99383.25;5104599;28;19923;-81
2021/05/02 10:37:22;;;;;;;2.42;0.90;;;;;;;15.40;55.80;99382.56;5104462;28;20105;-83
2021/05/02 10:40:02;;;;;;;4.10;0.95;;;;;;;15.54;55.18;99375.03;5086891;28;20024;-80
2021/05/02 10:42:52;;;;;;;2.47;1.33;;;;;;;15.52;56.29;99399.34;5103855;28;20481;-76
2021/05/02 10:45:37;;;;;;;2.03;1.05;;;;;;;15.71;56.98;99388.59;5107212;28;20036;-76
2021/05/02 10:48:09;;;;;;;2.90;1.20;;;;;;;15.80;57.89;99369.91;5104032;28;20042;-76
2021/05/02 10:50:46;;;;;;;1.98;0.85;;;;;;;15.83;57.89;99358.88;5101662;28;20032;-81
2021/05/02 10:53:16;;;;;;;8.73;1.55;;;;;;;15.63;56.05;99399.25;5095493;28;20394;-76
2021/05/02 10:56:06;;;;;;;2.08;1.02;;;;;;;15.52;55.35;99409.25;5095512;28;20040;-75
2021/05/02 10:58:40;;;;;;;2.38;1.08;;;;;;;15.39;54.57;99393.44;5095629;28;20061;-75
2021/05/02 11:01:09;;;;;;;2.05;1.00;;;;;;;15.35;54.34;99403.66;5077320;28;20385;-77
2021/05/02 11:03:40;;;;;;;4.10;1.05;;;;;;;15.53;54.02;99416.31;5095407;28;20093;-78
2021/05/02 11:06:11;;;;;;;1.35;0.80;;;;;;;16.05;52.67;99422.19;5095167;28;20036;-78
2021/05/02 11:08:59;;;;;;;1.42;0.90;;;;;;;16.13;52.43;99422.31;5095435;28;20039;-77
2021/05/02 11:11:30;;;;;;;2.40;0.98;;;;;;;16.18;51.74;99438.84;5095296;28;20496;-74
2021/05/02 11:14:08;;;;;;;1.77;1.08;;;;;;;15.84;53.17;99442.06;5094753;28;20072;-72
2021/05/02 11:16:34;;;;;;;2.30;0.95;;;;;;;15.85;53.17;99451.84;5094901;28;20056;-76
2021/05/02 11:19:00;;;;;;;3.80;1.20;;;;;;;16.02;52.56;99445.69;5097641;28;20063;-79
2021/05/02 11:21:26;;;;;;;2.22;1.13;;;;;;;15.79;52.96;99446.19;5085730;28;20100;-82
2021/05/02 11:24:00;;;;;;;1.83;1.15;;;;;;;15.77;53.48;99467.84;5097974;28;20110;-82
2021/05/02 11:29:35;;;;;;;1.67;1.15;;;;;;;15.27;54.23;99454.56;5116942;28;20046;-82
2021/05/02 11:32:01;;;;;;;3.15;1.20;;;;;;;15.41;54.32;99408.44;5106273;28;20035;-77
2021/05/02 11:34:47;;;;;;;2.72;1.15;;;;;;;15.79;52.37;99378.97;5110042;28;20036;-77
2021/05/02 11:37:50;;;;;;;3.05;1.30;;;;;;;16.11;52.36;99453.84;5115432;28;20078;-75
2021/05/02 11:40:27;;;;;;;2.15;1.30;;;;;;;15.96;53.19;99440.91;5114991;28;20468;-75
2021/05/02 11:42:53;;;;;;;3.92;1.70;;;;;;;16.04;52.81;99480.53;5095585;28;20036;-76